Aviation Digital Data Service (ADDS)

Output produced by METARs form (1152 UTC 23 June 2018)
found at http://www.aviationweather.gov/adds/metars/
 
KTVR 231053Z AUTO VRB03KT 10SM CLR 25/24 A2988 RMK AO2 SLP125 T02500244
KTVR 231001Z AUTO VRB04KT 10SM SCT015 25/25 A2987 RMK AO2 T02500250
KTVR 230953Z AUTO VRB06KT 10SM BKN015 25/25 A2986 RMK AO2 SLP117 T02500250
KTVR 230853Z AUTO VRB04KT 10SM FEW015 25/25 A2984 RMK AO2 SLP109 T02500250 53005
KTVR 230753Z AUTO 19006KT 10SM CLR 25/24 A2982 RMK AO2 SLP104 T02500244
KTVR 230653Z AUTO VRB04KT 10SM CLR 24/24 A2983 RMK AO2 SLP107 T02440244
KTVR 230553Z AUTO 18007KT 10SM CLR 23/23 A2982 RMK AO2 SLP104 T02330233 10233 20217 402890217 53004
KTVR 230453Z AUTO 17004KT 10SM CLR 23/23 A2982 RMK AO2 SLP103 T02280228
KTVR 230353Z AUTO 16004KT 10SM CLR 22/22 A2982 RMK AO2 SLP102 T02220222
KTVR 230253Z AUTO 16007KT 10SM CLR 22/22 A2981 RMK AO2 SLP100 T02220222 55010
KTVR 230153Z AUTO 00000KT 10SM CLR 22/22 A2980 RMK AO2 SLP097 T02170217
KTVR 230053Z AUTO 14008KT 10SM CLR 22/22 A2981 RMK AO2 SLP101 T02170217
KTVR 230010Z AUTO 14008KT 10SM CLR 22/22 A2983 RMK AO2 LTG DSNT SE AND S T02220222
KTVR 222353Z AUTO 12003KT 10SM VCTS CLR 22/22 A2984 RMK AO2 LTG DSNT E-SW RAE37 TSB03E42 SLP111 P0033 60037 T02220222 10278 20217 55005
KTVR 222348Z AUTO 15010KT 10SM VCTS FEW090 FEW110 22/22 A2983 RMK AO2 LTG DSNT E-SW RAE37 TSB03E42 P0033
KTVR 222316Z AUTO 13008KT 7SM TSRA SCT028 BKN100 OVC120 22/22 A2982 RMK AO2 LTG DSNT ALQDS TSB03 PRESFR P0029 T02170217
KTVR 222309Z AUTO 13006KT 2SM -TSRA BR SCT028 BKN036 OVC100 22/22 A2983 RMK AO2 LTG DSNT ALQDS TSB03 PRESFR P0027 T02170217
KTVR 222307Z AUTO 12007KT 1SM TSRA BR BKN026 BKN036 OVC100 22/22 A2983 RMK AO2 LTG DSNT ALQDS TSB03 PRESFR P0027 T02170217
KTVR 222259Z AUTO 08008KT 3/4SM VCTS +RA BR BKN028 BKN036 OVC065 22/22 A2984 RMK AO2 LTG DSNT ALQDS P0024 T02220222
KTVR 222257Z AUTO 08007KT 1 1/2SM VCTS +RA BR BKN030 BKN036 OVC075 22/22 A2985 RMK AO2 LTG DSNT ALQDS P0015 T02220222
KTVR 222253Z AUTO 04008KT 010V080 6SM VCTS RA BR FEW024 BKN036 OVC075 23/22 A2985 RMK AO2 PK WND 03027/2238 LTG DSNT ALQDS RAB30 SLP115 P0004 T02280222
KTVR 222251Z AUTO 04009G18KT 10SM VCTS -RA SCT024 BKN036 OVC075 23/22 A2986 RMK AO2 PK WND 03027/2238 LTG DSNT ALQDS RAB30 P0002
KTVR 222243Z AUTO 05013G26KT 9SM -RA FEW019 SCT028 OVC036 23/22 A2985 RMK AO2 PK WND 03027/2238 LTG DSNT ALQDS RAB30 P0002 T02280222
KTVR 222236Z AUTO 03020G26KT 7SM -RA FEW019 BKN029 OVC043 23/22 A2987 RMK AO2 PK WND 02026/2235 LTG DSNT ALQDS RAB30 P0001 T02330222
KTVR 222153Z AUTO 08004KT 10SM FEW050 FEW090 27/25 A2983 RMK AO2 LTG DSNT W-N RAB18E50 SLP107 P0000 T02670250
KTVR 222053Z AUTO 16006KT 10SM CLR 26/23 A2983 RMK AO2 LTG DSNT W SLP106 T02610233 56025
KTVR 222000Z AUTO 10009KT 10SM SCT028 27/23 A2986 RMK AO2 LTG DSNT NE AND E AND W T02670228
KTVR 221953Z AUTO 07010KT 10SM BKN029 27/23 A2986 RMK AO2 LTG DSNT NE AND W SLP117 T02670233
KTVR 221923Z AUTO 03013KT 10SM VCTS OVC029 26/22 A2989 RMK AO2 LTG DSNT N AND NE T02560222
KTVR 221908Z AUTO 02010KT 10SM BKN029 26/23 A2989 RMK AO2 LTG DSNT N AND NE T02610228
KTVR 221853Z AUTO 03006KT 10SM SCT031 SCT050 28/23 A2990 RMK AO2 LTG DSNT NW-NE SLP131 T02780228
KTVR 221812Z AUTO 14003KT 10SM FEW004 26/22 A2989 RMK AO2 LTG DSNT N AND NW T02610217
KTVR 221753Z AUTO 16005KT 10SM FEW019 SCT045 25/22 A2989 RMK AO2 LTG DSNT NW-E RAB29E48 PRESFR SLP126 P0000 60000 T02500222 10289 20233 50002
KTVR 221733Z AUTO 03005KT 10SM -RA SCT049 SCT060 BKN075 24/22 A2992 RMK AO2 LTG DSNT NE-SE RAB29 P0000 T02390217
KTVR 221701Z AUTO 32011G23KT 10SM VCTS FEW025 OVC031 24/21 A2995 RMK AO2 LTG DSNT NW-NE T02390211
KTVR 221653Z AUTO 32014G22KT 10SM BKN031 BKN055 25/22 A2996 RMK AO2 LTG DSNT NW-NE PRESRR SLP151 T02500217
KTVR 221553Z AUTO VRB03KT 10SM FEW048 27/24 A2991 RMK AO2 LTG DSNT N AND NW SLP134 T02720244
KTVR 221453Z AUTO VRB05KT 10SM CLR 29/25 A2988 RMK AO2 LTG DSNT N SLP124 T02890250 50001
KTVR 221353Z AUTO VRB03KT 10SM FEW016 28/25 A2988 RMK AO2 SLP124 T02780250
KTVR 221326Z AUTO VRB04KT 10SM SCT013 27/25 A2988 RMK AO2 T02670250
KTVR 221253Z AUTO VRB04KT 8SM OVC011 26/25 A2988 RMK AO2 SLP124 T02560250
KTVR 221153Z AUTO VRB03KT 8SM OVC011 25/25 A2988 RMK AO2 SLP123 T02500250 10256 20244 51010
KTVR 221053Z AUTO VRB04KT 9SM OVC010 26/25 A2987 RMK AO2 SLP120 T02560250
KTVR 221016Z AUTO VRB04KT 9SM OVC010 25/25 A2987 RMK AO2 T02500250
KTVR 220953Z AUTO VRB03KT 8SM OVC009 25/25 A2986 RMK AO2 SLP118 T02500250
KTVR 220932Z AUTO VRB05KT 8SM OVC009 25/25 A2986 RMK AO2 T02500250
KTVR 220906Z AUTO VRB04KT 8SM BKN010 24/24 A2985 RMK AO2 T02440244
KTVR 220853Z AUTO VRB03KT 8SM FEW009 24/24 A2985 RMK AO2 SLP113 T02440244 55004
KTVR 220753Z AUTO VRB03KT 10SM CLR 24/24 A2984 RMK AO2 SLP111 T02440244
KTVR 220653Z AUTO 22003KT 10SM CLR 25/25 A2985 RMK AO2 SLP113 T02500250
KTVR 220553Z AUTO VRB03KT 10SM FEW036 26/25 A2986 RMK AO2 SLP117 T02560250 10306 20256 403220239 58001
KTVR 220453Z AUTO VRB04KT 10SM CLR 26/25 A2987 RMK AO2 SLP119 T02560250
KTVR 220353Z AUTO VRB05KT 10SM CLR 26/25 A2986 RMK AO2 SLP117 T02610250
KTVR 220253Z AUTO VRB04KT 10SM CLR 27/26 A2986 RMK AO2 SLP118 T02670256 53010
KTVR 220153Z AUTO 19005KT 10SM CLR 27/26 A2985 RMK AO2 SLP113 T02720261
KTVR 220053Z AUTO VRB05KT 10SM CLR 29/26 A2983 RMK AO2 SLP108 T02890261
KTVR 212353Z AUTO VRB03KT 10SM CLR 31/26 A2983 RMK AO2 SLP107 60000 T03060261 10322 20278 55005
KTVR 212253Z AUTO 22005KT 10SM SCT090 31/26 A2983 RMK AO2 SLP107 T03110261
KTVR 212153Z AUTO VRB06KT 10SM FEW042 SCT050 30/26 A2983 RMK AO2 RAE05 SLP108 P0000 T03000256
KTVR 212053Z AUTO VRB04KT 10SM -RA FEW034 SCT047 BKN060 30/26 A2985 RMK AO2 RAB52 SLP113 P0000 60000 T03000261 56018
KTVR 211953Z AUTO VRB05KT 10SM SCT028 BKN036 BKN060 29/26 A2986 RMK AO2 SLP118 T02940256
KTVR 211853Z AUTO VRB05KT 10SM FEW023 SCT047 30/27 A2988 RMK AO2 RAB15E28 SLP123 P0000 T03000267
KTVR 211825Z AUTO VRB05KT 10SM -RA FEW025 SCT036 BKN050 29/27 A2989 RMK AO2 RAB15 P0000 T02890267
KTVR 211753Z AUTO VRB03KT 10SM SCT025 BKN029 BKN039 29/26 A2990 RMK AO2 SLP131 60000 T02940256 10300 20250 58009
KTVR 211719Z AUTO VRB06KT 10SM SCT023 BKN035 OVC065 29/26 A2991 RMK AO2 T02890256
KTVR 211653Z AUTO VRB04KT 10SM SCT019 BKN026 OVC055 28/25 A2992 RMK AO2 SLP138 T02780250
KTVR 211553Z AUTO VRB03KT 10SM SCT070 28/25 A2993 RMK AO2 RAB10E27 SLP141 P0000 T02780250
KTVR 211453Z AUTO VRB03KT 10SM FEW070 SCT110 27/25 A2993 RMK AO2 RAB15E25 SLP140 P0000 60000 T02670250 50005
KTVR 211353Z AUTO VRB03KT 10SM SCT011 BKN110 26/25 A2993 RMK AO2 RAE1259 SLP140 P0000 T02560250
KTVR 211334Z AUTO 00000KT 10SM BKN011 BKN090 26/26 A2993 RMK AO2 RAE1259 P0000 T02560256
KTVR 211316Z AUTO 00000KT 9SM FEW009 FEW090 25/25 A2992 RMK AO2 RAE1259 P0000 T02500250
KTVR 211253Z AUTO 00000KT 8SM -RA FEW010 SCT046 BKN110 25/25 A2991 RMK AO2 LTG DSNT NE RAB46 SLP135 P0000 T02500250
KTVR 211234Z AUTO VRB03KT 7SM SCT011 BKN055 BKN110 25/25 A2991 RMK AO2 T02500250
KTVR 211224Z AUTO 00000KT 6SM BR BKN011 BKN060 BKN110 25/25 A2991 RMK AO2 CIG 008V015 T02500250
KTVR 211153Z AUTO 00000KT 6SM BR SCT012 SCT050 BKN080 25/25 A2991 RMK AO2 RAB17E52 SLP134 P0002 60002 70004 T02500250 10250 20239 53007
KTVR 211053Z AUTO 00000KT 7SM CLR 24/24 A2990 RMK AO2 RAE37 SLP130 P0000 T02440244
KTVR 210953Z AUTO 00000KT 9SM -RA SCT110 25/25 A2988 RMK AO2 RAB51 SLP125 P0000 T02500250
KTVR 210853Z AUTO VRB03KT 10SM CLR 25/25 A2989 RMK AO2 SLP127 T02500250 55005
KTVR 210753Z AUTO 19003KT 10SM CLR 25/25 A2989 RMK AO2 SLP126 T02500250
KTVR 210653Z AUTO 18004KT 9SM CLR 24/24 A2990 RMK AO2 SLP129 T02440244
KTVR 210553Z AUTO 00000KT 8SM FEW110 24/24 A2990 RMK AO2 SLP132 60000 T02390239 10244 20233 403110233 58003
KTVR 210453Z AUTO 00000KT 10SM CLR 24/24 A2992 RMK AO2 SLP136 T02390239
KTVR 210353Z AUTO 00000KT 10SM CLR 24/24 A2992 RMK AO2 SLP139 T02440244
KTVR 210253Z AUTO 00000KT 10SM CLR 24/24 A2991 RMK AO2 SLP135 60000 T02440244 53006
KTVR 210153Z AUTO 00000KT 10SM CLR 24/24 A2990 RMK AO2 SLP129 T02390239
KTVR 210053Z AUTO 00000KT 10SM FEW004 24/24 A2989 RMK AO2 RAB10E22 SLP128 P0000 T02390239
KTVR 210046Z AUTO 00000KT 10SM FEW004 24/24 A2989 RMK AO2 RAB10E22 P0000 T02390239
KTVR 202353Z AUTO 00000KT 10SM FEW041 FEW100 24/24 A2990 RMK AO2 LTG DSNT N RAB2255E53 TSB2257E17 SLP129 P0002 60002 T02390239 10311 20233 58002
KTVR 202323Z AUTO 00000KT 6SM VCTS -RA BR SCT027 BKN085 BKN110 23/23 A2990 RMK AO2 LTG DSNT SW RAB2255 TSB2257E17 P0001 T02330233
KTVR 202315Z AUTO 14007KT 7SM -TSRA BKN025 BKN090 BKN110 24/23 A2990 RMK AO2 LTG DSNT SW AND W RAB2255 TSB2257 P0001 T02390233
KTVR 202303Z AUTO 16013KT 10SM -TSRA SCT014 SCT024 BKN080 25/23 A2990 RMK AO2 LTG DSNT SE-W RAB2255 TSB2257 P0000 T02500233
KTVR 202253Z AUTO 16014KT 10SM FEW028 SCT065 BKN085 26/23 A2990 RMK AO2 PK WND 16031/2236 LTG DSNT SE-W SLP132 T02610228
KTVR 202231Z AUTO 15009KT 10SM VCTS FEW070 BKN090 29/25 A2991 RMK AO2 LTG DSNT E-SW T02890250
KTVR 202153Z AUTO 11006KT 10SM FEW110 29/24 A2990 RMK AO2 LTG DSNT SE AND S SLP130 T02890244
KTVR 202053Z AUTO 09006KT 10SM CLR 29/24 A2990 RMK AO2 SLP131 T02940244 58012
KTVR 202002Z AUTO 00000KT 10SM SCT026 SCT035 BKN050 29/23 A2992 RMK AO2 T02890233
KTVR 201953Z AUTO 00000KT 10SM BKN028 BKN036 OVC050 27/23 A2992 RMK AO2 LTG DSNT E SLP138 T02670233
KTVR 201948Z AUTO VRB04G17KT 10SM BKN026 BKN036 OVC042 26/23 A2993 RMK AO2 LTG DSNT E
KTVR 201936Z AUTO 14011G17KT 10SM VCTS BKN028 BKN050 30/25 A2993 RMK AO2 LTG DSNT E T03000250
KTVR 201904Z AUTO 00000KT 10SM VCTS SCT028 30/25 A2994 RMK AO2 LTG DSNT E-S T03000250
KTVR 201853Z AUTO 00000KT 10SM SCT028 29/25 A2994 RMK AO2 LTG DSNT E-S SLP143 T02940250
KTVR 201753Z AUTO 20004KT 10SM CLR 29/25 A2996 RMK AO2 SLP151 T02940250 10294 20239 58006
KTVR 201653Z AUTO 00000KT 10SM FEW014 BKN100 28/26 A2997 RMK AO2 SLP156 T02830256
KTVR 201553Z AUTO 15005KT 10SM SCT110 27/26 A2998 RMK AO2 SLP156 T02720261 $
KTVR 201453Z AUTO 15006KT 10SM FEW120 27/26 A2998 RMK AO2 SLP156 T02670256 51005 $
KTVR 201353Z AUTO 13004KT 10SM CLR 26/25 A2997 RMK AO2 SLP154 T02560250 $
KTVR 201253Z AUTO 14004KT 10SM CLR 24/24 A2997 RMK AO2 SLP154 T02440244 $
KTVR 201223Z AUTO 14003KT 10SM FEW005 24/24 A2997 RMK AO2 T02390239 $
KTVR 201153Z AUTO 14003KT 10SM CLR 24/24 A2996 RMK AO2 SLP151 70003 T02390239 10239 20239 53002